KCAR 191454Z AUTO 04008KT 10SM OVC019 12/07 A3006 RMK AO2 SLP186 T01220072 51010